createdAt,value
2022-07-28T00:00:38.291Z,9.95
2022-07-28T00:03:05.343Z,11.07
2022-07-28T00:05:31.968Z,10.07
2022-07-28T00:08:01.083Z,9.85
2022-07-28T00:10:27.732Z,10.57
2022-07-28T00:12:54.223Z,11.05
2022-07-28T00:15:20.931Z,10.57
2022-07-28T00:17:47.372Z,10.80
2022-07-28T00:20:14.271Z,10.43
2022-07-28T00:22:44.864Z,10.85
2022-07-28T00:25:11.706Z,11.20
2022-07-28T00:27:38.889Z,11.00
2022-07-28T00:30:08.932Z,12.30
2022-07-28T00:32:35.683Z,12.00
2022-07-28T00:35:02.430Z,12.10
2022-07-28T00:37:29.142Z,14.00
2022-07-28T00:39:56.334Z,14.13
2022-07-28T00:42:23.144Z,13.85
2022-07-28T00:44:49.654Z,12.93
2022-07-28T00:47:16.487Z,14.10
2022-07-28T00:49:45.284Z,14.43
2022-07-28T00:52:12.791Z,13.68
2022-07-28T00:54:39.415Z,13.98
2022-07-28T00:57:06.146Z,14.95
2022-07-28T00:59:33.865Z,14.30
2022-07-28T01:02:02.128Z,14.77
2022-07-28T01:04:29.771Z,13.43
2022-07-28T01:07:08.686Z,14.38
2022-07-28T01:09:56.356Z,14.15
2022-07-28T01:12:47.402Z,13.50
2022-07-28T01:15:25.428Z,14.02
2022-07-28T01:17:59.897Z,13.25
2022-07-28T01:20:34.119Z,13.75
2022-07-28T01:23:12.784Z,13.88
2022-07-28T01:25:51.557Z,13.20
2022-07-28T01:28:24.869Z,13.48
2022-07-28T01:30:56.385Z,13.95
2022-07-28T01:33:33.571Z,13.38
2022-07-28T01:36:06.572Z,14.25
2022-07-28T01:38:35.519Z,13.02
2022-07-28T01:41:03.983Z,14.77
2022-07-28T01:43:34.752Z,13.57
2022-07-28T01:46:03.147Z,13.57
2022-07-28T01:48:31.309Z,13.60
2022-07-28T01:50:58.367Z,13.93
2022-07-28T01:53:26.920Z,13.40
2022-07-28T01:55:54.624Z,14.73
2022-07-28T01:58:25.372Z,13.50
2022-07-28T02:00:53.630Z,14.07
2022-07-28T02:03:21.957Z,14.18
2022-07-28T02:05:51.309Z,13.48
2022-07-28T02:08:23.007Z,13.68
2022-07-28T02:11:14.288Z,13.45
2022-07-28T02:13:42.291Z,13.60
2022-07-28T02:16:11.896Z,14.27
2022-07-28T02:18:39.654Z,13.48
2022-07-28T02:21:07.385Z,13.40
2022-07-28T02:23:35.760Z,13.13
2022-07-28T02:26:06.620Z,13.43
2022-07-28T02:28:33.996Z,13.35
2022-07-28T02:31:06.489Z,13.60
2022-07-28T02:34:00.313Z,13.73
2022-07-28T02:36:32.868Z,12.70
2022-07-28T02:39:06.470Z,12.43
2022-07-28T02:41:38.166Z,12.65
2022-07-28T02:44:12.917Z,12.50
2022-07-28T02:46:45.137Z,14.07
2022-07-28T02:49:21.199Z,12.02
2022-07-28T02:51:51.273Z,12.45
2022-07-28T02:54:19.768Z,12.77
2022-07-28T02:56:53.743Z,12.00
2022-07-28T02:59:21.933Z,12.13
2022-07-28T03:01:49.654Z,12.52
2022-07-28T03:04:38.074Z,12.35
2022-07-28T03:07:05.751Z,11.85
2022-07-28T03:09:40.503Z,12.25
2022-07-28T03:12:07.599Z,11.82
2022-07-28T03:14:34.212Z,12.00
2022-07-28T03:17:00.912Z,11.70
2022-07-28T03:19:27.370Z,12.02
2022-07-28T03:21:54.126Z,12.23
2022-07-28T03:24:26.204Z,12.00
2022-07-28T03:27:02.459Z,12.00
2022-07-28T03:29:32.609Z,12.02
2022-07-28T03:32:00.518Z,11.85
2022-07-28T03:34:28.528Z,11.82
2022-07-28T03:37:02.959Z,11.52
2022-07-28T03:39:33.073Z,11.43
2022-07-28T03:42:01.418Z,11.38
2022-07-28T03:44:29.711Z,11.32
2022-07-28T03:46:56.659Z,10.23
2022-07-28T03:49:23.205Z,10.90
2022-07-28T03:51:49.762Z,11.85
2022-07-28T03:54:16.715Z,11.00
2022-07-28T03:56:43.415Z,10.95
2022-07-28T03:59:11.243Z,11.18
2022-07-28T04:01:38.201Z,10.80
2022-07-28T04:04:05.067Z,10.77
2022-07-28T04:06:31.586Z,11.68
2022-07-28T04:08:57.977Z,10.82
2022-07-28T04:11:24.414Z,10.65
2022-07-28T04:13:50.903Z,10.45
2022-07-28T04:16:17.412Z,10.45
2022-07-28T04:18:43.850Z,10.68
2022-07-28T04:21:10.376Z,10.35
2022-07-28T04:23:36.843Z,10.25
2022-07-28T04:26:03.356Z,10.50
2022-07-28T04:28:29.981Z,10.82
2022-07-28T04:30:56.628Z,9.65
2022-07-28T04:33:23.176Z,9.45
2022-07-28T04:35:52.519Z,10.70
2022-07-28T04:38:20.270Z,9.57
2022-07-28T04:40:50.107Z,9.80
2022-07-28T04:43:16.707Z,10.15
2022-07-28T04:45:53.143Z,9.77
2022-07-28T04:48:21.549Z,9.68
2022-07-28T04:50:48.226Z,9.40
2022-07-28T04:53:14.809Z,9.75
2022-07-28T04:55:41.277Z,9.70
2022-07-28T04:58:09.363Z,9.63
2022-07-28T05:00:36.141Z,9.82
2022-07-28T05:03:03.606Z,10.32
2022-07-28T05:05:30.080Z,9.98
2022-07-28T05:07:56.688Z,9.82
2022-07-28T05:10:23.324Z,9.15
2022-07-28T05:12:50.660Z,9.63
2022-07-28T05:15:17.102Z,9.77
2022-07-28T05:17:43.495Z,9.48
2022-07-28T05:20:10.678Z,9.40
2022-07-28T05:22:48.197Z,10.10
2022-07-28T05:25:18.987Z,9.48
2022-07-28T05:27:47.077Z,9.95
2022-07-28T05:30:15.405Z,9.88
2022-07-28T05:32:42.012Z,9.23
2022-07-28T05:35:08.968Z,10.18
2022-07-28T05:37:36.679Z,9.75
2022-07-28T05:40:09.699Z,9.63
2022-07-28T05:42:36.543Z,9.02
2022-07-28T05:45:15.753Z,9.20
2022-07-28T05:47:52.626Z,9.27
2022-07-28T05:50:21.188Z,8.45
2022-07-28T05:52:48.918Z,9.48
2022-07-28T05:55:16.370Z,9.48
2022-07-28T05:57:43.585Z,9.05
2022-07-28T06:00:13.301Z,9.65
2022-07-28T06:02:41.383Z,9.10
2022-07-28T06:05:08.278Z,9.85
2022-07-28T06:07:43.490Z,9.25
2022-07-28T06:10:13.199Z,9.63
2022-07-28T06:12:44.204Z,8.63
2022-07-28T06:15:15.769Z,8.70
2022-07-28T06:17:42.610Z,9.30
2022-07-28T06:20:10.882Z,8.60
2022-07-28T06:22:44.783Z,8.98
2022-07-28T06:25:25.297Z,8.65
2022-07-28T06:27:54.917Z,8.68
2022-07-28T06:30:22.572Z,8.00
2022-07-28T06:32:50.016Z,8.20
2022-07-28T06:35:17.436Z,8.07
2022-07-28T06:37:45.149Z,8.35
2022-07-28T06:40:12.854Z,8.18
2022-07-28T06:42:40.269Z,8.18
2022-07-28T06:45:08.137Z,7.95
2022-07-28T06:47:34.921Z,7.70
2022-07-28T06:50:02.113Z,8.05
2022-07-28T06:52:28.788Z,8.10
2022-07-28T06:54:58.070Z,8.20
2022-07-28T06:57:33.335Z,8.30
2022-07-28T07:00:03.223Z,8.73
2022-07-28T07:02:29.941Z,8.60
2022-07-28T07:04:56.437Z,8.60
2022-07-28T07:07:23.543Z,8.27
2022-07-28T07:09:50.057Z,8.90
2022-07-28T07:12:16.438Z,8.18
2022-07-28T07:14:42.845Z,8.23
2022-07-28T07:17:09.233Z,8.23
2022-07-28T07:19:35.802Z,8.52
2022-07-28T07:22:02.351Z,8.07
2022-07-28T07:24:28.797Z,8.30
2022-07-28T07:26:55.265Z,9.00
2022-07-28T07:29:22.891Z,8.35
2022-07-28T07:31:52.869Z,8.50
2022-07-28T07:34:20.139Z,8.13
2022-07-28T07:36:46.807Z,8.38
2022-07-28T07:39:13.455Z,8.20
2022-07-28T07:41:39.888Z,8.27
2022-07-28T07:44:06.479Z,8.52
2022-07-28T07:46:36.376Z,8.80
2022-07-28T07:49:02.944Z,8.00
2022-07-28T07:51:29.394Z,7.70
2022-07-28T07:53:55.827Z,8.07
2022-07-28T07:56:22.285Z,8.05
2022-07-28T07:58:53.610Z,8.20
2022-07-28T08:01:22.981Z,8.48
2022-07-28T08:03:50.214Z,8.52
2022-07-28T08:06:16.850Z,8.70
2022-07-28T08:08:52.851Z,8.80
2022-07-28T08:11:19.315Z,8.80
2022-07-28T08:13:45.746Z,8.90
2022-07-28T08:16:12.194Z,8.93
2022-07-28T08:18:38.680Z,8.75
2022-07-28T08:21:05.146Z,9.20
2022-07-28T08:23:31.632Z,9.05
2022-07-28T08:25:58.163Z,8.80
2022-07-28T08:28:24.681Z,9.00
2022-07-28T08:30:51.267Z,8.80
2022-07-28T08:33:21.652Z,9.15
2022-07-28T08:35:49.273Z,8.90
2022-07-28T08:38:16.494Z,8.70
2022-07-28T08:40:48.541Z,9.02
2022-07-28T08:43:32.747Z,8.52
2022-07-28T08:46:01.202Z,8.75
2022-07-28T08:48:32.239Z,8.85
2022-07-28T08:51:07.498Z,8.73
2022-07-28T08:53:36.169Z,8.60
2022-07-28T08:56:07.416Z,8.50
2022-07-28T08:58:35.791Z,8.98
2022-07-28T09:01:03.746Z,8.95
2022-07-28T09:03:30.921Z,8.88
2022-07-28T09:05:58.393Z,8.25
2022-07-28T09:08:25.424Z,8.52
2022-07-28T09:10:52.252Z,8.70
2022-07-28T09:13:19.329Z,8.65
2022-07-28T09:15:46.851Z,8.43
2022-07-28T09:18:14.815Z,8.15
2022-07-28T09:20:43.453Z,8.43
2022-07-28T09:23:42.594Z,8.65
2022-07-28T09:26:12.398Z,8.68
2022-07-28T09:28:49.261Z,8.50
2022-07-28T09:31:17.317Z,9.15
2022-07-28T09:34:02.565Z,9.10
2022-07-28T09:36:30.825Z,8.60
2022-07-28T09:38:57.353Z,8.25
2022-07-28T09:41:25.194Z,8.00
2022-07-28T09:43:55.261Z,7.80
2022-07-28T09:46:27.361Z,8.40
2022-07-28T09:48:59.378Z,8.30
2022-07-28T09:51:31.003Z,8.30
2022-07-28T09:54:20.259Z,8.40
2022-07-28T09:56:46.711Z,8.40
2022-07-28T09:59:14.784Z,8.30
2022-07-28T10:01:55.076Z,8.40
2022-07-28T10:07:14.247Z,8.23
2022-07-28T10:09:41.449Z,8.70
2022-07-28T10:12:22.509Z,8.77
2022-07-28T10:14:51.718Z,8.07
2022-07-28T10:17:32.145Z,8.43
2022-07-28T10:20:00.252Z,8.35
2022-07-28T10:22:29.983Z,8.48
2022-07-28T10:24:58.440Z,8.27
2022-07-28T10:27:26.319Z,7.15
2022-07-28T10:29:58.677Z,7.72
2022-07-28T10:32:26.507Z,7.45
2022-07-28T10:35:11.111Z,7.88
2022-07-28T10:37:43.806Z,7.65
2022-07-28T10:40:12.523Z,7.50
2022-07-28T10:42:40.485Z,7.80
2022-07-28T10:45:09.278Z,7.63
2022-07-28T10:47:36.324Z,7.70
2022-07-28T10:50:04.705Z,7.70
2022-07-28T10:52:50.487Z,7.60
2022-07-28T10:55:41.897Z,8.02
2022-07-28T10:58:44.776Z,8.10
2022-07-28T11:01:47.687Z,7.70
2022-07-28T11:04:48.271Z,8.20
2022-07-28T11:07:17.025Z,8.27
2022-07-28T11:09:44.629Z,8.02
2022-07-28T11:12:15.257Z,7.65
2022-07-28T11:14:42.875Z,7.97
2022-07-28T11:17:11.257Z,7.75
2022-07-28T11:19:55.709Z,8.20
2022-07-28T11:22:32.721Z,8.20
2022-07-28T11:25:19.972Z,8.18
2022-07-28T11:27:51.657Z,8.10
2022-07-28T11:30:28.674Z,7.72
2022-07-28T11:32:55.227Z,8.40
2022-07-28T11:35:23.234Z,8.05
2022-07-28T11:38:01.857Z,8.10
2022-07-28T11:40:31.937Z,7.47
2022-07-28T11:43:37.104Z,8.20
2022-07-28T11:46:04.859Z,7.95
2022-07-28T11:48:39.161Z,8.10
2022-07-28T11:51:05.840Z,7.80
2022-07-28T11:53:53.022Z,7.80
2022-07-28T11:56:24.859Z,8.07
2022-07-28T11:58:58.363Z,7.72
2022-07-28T12:01:25.055Z,7.55
2022-07-28T12:03:55.990Z,7.20
2022-07-28T12:06:35.377Z,7.63
2022-07-28T12:09:07.468Z,7.70
2022-07-28T12:11:36.617Z,7.50
2022-07-28T12:14:10.245Z,7.50
2022-07-28T12:16:39.715Z,7.80
2022-07-28T12:19:07.936Z,7.80
2022-07-28T12:21:46.576Z,7.68
2022-07-28T12:24:18.792Z,7.40
2022-07-28T12:26:49.487Z,7.20
2022-07-28T12:29:16.635Z,7.57
2022-07-28T12:31:54.062Z,7.53
2022-07-28T12:34:21.806Z,7.55
2022-07-28T12:36:56.918Z,7.90
2022-07-28T12:39:25.633Z,7.13
2022-07-28T12:42:04.294Z,6.90
2022-07-28T12:44:39.005Z,7.47
2022-07-28T12:47:08.170Z,7.10
2022-07-28T12:49:36.545Z,7.70
2022-07-28T12:52:22.092Z,7.47
2022-07-28T12:54:50.587Z,7.35
2022-07-28T12:57:48.115Z,7.43
2022-07-28T13:00:19.500Z,7.60
2022-07-28T13:02:47.214Z,8.00
2022-07-28T13:06:03.600Z,7.80
2022-07-28T13:08:44.636Z,7.85
2022-07-28T13:11:42.030Z,7.78
2022-07-28T13:14:01.898Z,7.35
2022-07-28T13:16:29.756Z,7.47
2022-07-28T13:18:59.287Z,7.63
2022-07-28T13:21:58.707Z,8.02
2022-07-28T13:24:28.892Z,7.95
2022-07-28T13:26:56.482Z,8.00
2022-07-28T13:29:23.722Z,7.53
2022-07-28T13:31:50.829Z,7.75
2022-07-28T13:34:17.970Z,7.90
2022-07-28T13:36:44.745Z,7.40
2022-07-28T13:39:11.521Z,7.38
2022-07-28T13:41:57.318Z,7.43
2022-07-28T13:44:24.592Z,7.40
2022-07-28T13:46:51.661Z,7.57
2022-07-28T13:49:21.150Z,8.10
2022-07-28T13:51:48.352Z,7.85
2022-07-28T13:54:15.017Z,7.75
2022-07-28T13:56:42.805Z,7.53
2022-07-28T13:59:10.106Z,7.40
2022-07-28T14:01:41.471Z,7.40
2022-07-28T14:04:14.646Z,7.40
2022-07-28T14:06:44.909Z,7.32
2022-07-28T14:09:12.310Z,7.15
2022-07-28T14:11:49.353Z,7.03
2022-07-28T14:14:20.164Z,7.50
2022-07-28T14:16:47.832Z,7.25
2022-07-28T14:19:16.428Z,7.65
2022-07-28T14:21:50.290Z,7.63
2022-07-28T14:24:17.495Z,7.25
2022-07-28T14:26:44.304Z,7.20
2022-07-28T14:29:11.294Z,6.70
2022-07-28T14:31:38.475Z,7.10
2022-07-28T14:34:06.823Z,7.20
2022-07-28T14:36:33.355Z,7.07
2022-07-28T14:38:59.830Z,7.00
2022-07-28T14:41:26.411Z,7.30
2022-07-28T14:43:53.207Z,7.13
2022-07-28T14:46:21.893Z,7.35
2022-07-28T14:48:48.808Z,7.57
2022-07-28T14:51:15.375Z,7.80
2022-07-28T14:53:43.295Z,7.78
2022-07-28T14:56:16.758Z,7.93
2022-07-28T14:58:43.471Z,7.30
2022-07-28T15:01:10.457Z,7.60
2022-07-28T15:03:37.654Z,7.20
2022-07-28T15:06:09.994Z,7.20
2022-07-28T15:08:36.463Z,7.10
2022-07-28T15:11:03.177Z,7.32
2022-07-28T15:13:29.657Z,7.35
2022-07-28T15:15:56.777Z,7.25
2022-07-28T15:18:23.251Z,6.95
2022-07-28T15:20:51.491Z,7.00
2022-07-28T15:23:18.089Z,7.10
2022-07-28T15:25:46.369Z,7.07
2022-07-28T15:28:17.612Z,7.95
2022-07-28T15:30:51.667Z,7.80
2022-07-28T15:33:20.445Z,7.82
2022-07-28T15:35:58.388Z,7.22
2022-07-28T15:38:29.526Z,6.85
2022-07-28T15:41:00.987Z,6.63
2022-07-28T15:43:32.794Z,6.65
2022-07-28T15:46:03.332Z,7.07
2022-07-28T15:48:29.887Z,6.90
2022-07-28T15:50:57.673Z,7.40
2022-07-28T15:53:24.191Z,7.32
2022-07-28T15:55:52.057Z,7.10
2022-07-28T15:58:19.190Z,7.10
2022-07-28T16:00:46.013Z,7.35
2022-07-28T16:03:13.217Z,8.02
2022-07-28T16:05:40.310Z,7.45
2022-07-28T16:08:06.932Z,7.43
2022-07-28T16:10:34.811Z,7.70
2022-07-28T16:13:02.469Z,7.55
2022-07-28T16:15:30.219Z,7.30
2022-07-28T16:17:57.048Z,7.50
2022-07-28T16:20:24.449Z,7.28
2022-07-28T16:22:51.388Z,7.30
2022-07-28T16:25:20.349Z,7.50
2022-07-28T16:27:48.608Z,8.00
2022-07-28T16:30:16.552Z,7.72
2022-07-28T16:32:43.209Z,7.70
2022-07-28T16:35:10.484Z,7.32
2022-07-28T16:37:37.415Z,7.47
2022-07-28T16:40:04.631Z,7.63
2022-07-28T16:42:31.689Z,7.40
2022-07-28T16:44:58.618Z,7.65
2022-07-28T16:47:25.110Z,7.72
2022-07-28T16:49:51.574Z,7.63
2022-07-28T16:52:18.098Z,7.40
2022-07-28T16:54:45.656Z,7.57
2022-07-28T16:57:14.786Z,8.00
2022-07-28T16:59:47.912Z,7.95
2022-07-28T17:02:15.279Z,8.05
2022-07-28T17:04:42.084Z,7.45
2022-07-28T17:07:08.713Z,8.00
2022-07-28T17:09:35.144Z,8.50
2022-07-28T17:12:01.686Z,8.38
2022-07-28T17:14:28.180Z,8.50
2022-07-28T17:16:54.685Z,8.43
2022-07-28T17:19:22.148Z,8.27
2022-07-28T17:21:49.080Z,8.23
2022-07-28T17:24:16.148Z,8.27
2022-07-28T17:29:31.062Z,8.05
2022-07-28T17:31:57.717Z,8.15
2022-07-28T17:34:24.464Z,7.70
2022-07-28T17:36:51.197Z,8.30
2022-07-28T17:39:17.681Z,7.97
2022-07-28T17:41:44.138Z,7.80
2022-07-28T17:44:10.602Z,8.00
2022-07-28T17:46:37.118Z,7.82
2022-07-28T17:49:08.504Z,8.10
2022-07-28T17:51:34.994Z,8.80
2022-07-28T17:54:01.462Z,8.02
2022-07-28T17:56:31.205Z,7.70
2022-07-28T17:58:58.688Z,8.60
2022-07-28T18:01:25.268Z,7.90
2022-07-28T18:03:56.533Z,8.40
2022-07-28T18:06:28.287Z,8.10
2022-07-28T18:08:54.741Z,8.25
2022-07-28T18:11:21.260Z,8.00
2022-07-28T18:14:03.673Z,8.25
2022-07-28T18:16:32.206Z,9.52
2022-07-28T18:18:58.647Z,9.15
2022-07-28T18:21:26.646Z,11.63
2022-07-28T18:23:54.899Z,11.38
2022-07-28T18:26:21.989Z,9.43
2022-07-28T18:28:48.957Z,8.68
2022-07-28T18:31:15.762Z,8.00
2022-07-28T18:33:42.341Z,9.23
2022-07-28T18:36:09.007Z,8.13
2022-07-28T18:38:35.494Z,8.00
2022-07-28T18:41:02.090Z,7.72
2022-07-28T18:43:28.406Z,7.93
2022-07-28T18:45:54.931Z,7.80
2022-07-28T18:48:21.504Z,7.78
2022-07-28T18:50:47.950Z,7.68
2022-07-28T18:53:14.400Z,7.60
2022-07-28T18:55:40.810Z,7.88
2022-07-28T18:58:07.316Z,7.88
2022-07-28T19:00:33.884Z,8.10
2022-07-28T19:03:01.561Z,7.85
2022-07-28T19:05:37.143Z,8.27
2022-07-28T19:08:04.876Z,7.88
2022-07-28T19:10:32.581Z,8.27
2022-07-28T19:12:59.631Z,8.05
2022-07-28T19:15:26.409Z,8.20
2022-07-28T19:18:11.182Z,7.93
2022-07-28T19:20:39.682Z,8.18
2022-07-28T19:23:06.193Z,8.30
2022-07-28T19:25:35.552Z,8.20
2022-07-28T19:28:02.423Z,7.90
2022-07-28T19:30:30.689Z,7.90
2022-07-28T19:32:57.236Z,8.27
2022-07-28T19:35:23.825Z,8.80
2022-07-28T19:37:50.888Z,8.23
2022-07-28T19:40:17.368Z,7.78
2022-07-28T19:42:43.805Z,8.63
2022-07-28T19:45:10.521Z,7.85
2022-07-28T19:47:37.209Z,8.20
2022-07-28T19:50:05.185Z,8.15
2022-07-28T19:52:31.866Z,8.55
2022-07-28T19:54:58.327Z,8.60
2022-07-28T19:57:25.352Z,8.60
2022-07-28T19:59:51.900Z,8.85
2022-07-28T20:02:18.358Z,8.55
2022-07-28T20:04:44.892Z,8.68
2022-07-28T20:07:11.526Z,8.00
2022-07-28T20:09:38.625Z,8.65
2022-07-28T20:12:05.485Z,8.50
2022-07-28T20:14:34.438Z,8.45
2022-07-28T20:17:01.094Z,8.15
2022-07-28T20:19:27.571Z,7.75
2022-07-28T20:21:54.140Z,8.18
2022-07-28T20:24:21.149Z,8.35
2022-07-28T20:26:47.532Z,8.38
2022-07-28T20:29:14.958Z,8.50
2022-07-28T20:31:41.543Z,8.93
2022-07-28T20:34:09.995Z,8.45
2022-07-28T20:36:36.437Z,8.18
2022-07-28T20:39:15.758Z,8.50
2022-07-28T20:41:49.621Z,8.18
2022-07-28T20:44:28.715Z,8.63
2022-07-28T20:47:02.330Z,8.17
2022-07-28T20:49:29.778Z,7.78
2022-07-28T20:51:57.515Z,8.00
2022-07-28T20:54:25.593Z,8.18
2022-07-28T20:56:52.157Z,8.35
2022-07-28T20:59:18.761Z,8.52
2022-07-28T21:01:45.348Z,7.93
2022-07-28T21:04:12.025Z,7.80
2022-07-28T21:06:39.806Z,7.65
2022-07-28T21:09:18.087Z,7.80
2022-07-28T21:11:44.611Z,8.45
2022-07-28T21:14:11.058Z,7.85
2022-07-28T21:16:37.605Z,8.10
2022-07-28T21:19:05.618Z,8.02
2022-07-28T21:21:32.108Z,7.78
2022-07-28T21:23:58.574Z,7.50
2022-07-28T21:26:25.063Z,7.75
2022-07-28T21:29:10.124Z,7.57
2022-07-28T21:32:04.307Z,7.60
2022-07-28T21:34:26.853Z,8.20
2022-07-28T21:36:53.265Z,7.93
2022-07-28T21:39:19.965Z,8.50
2022-07-28T21:41:46.407Z,7.85
2022-07-28T21:44:12.933Z,8.30
2022-07-28T21:46:39.732Z,8.23
2022-07-28T21:49:06.303Z,7.07
2022-07-28T21:51:32.852Z,7.80
2022-07-28T21:54:00.133Z,7.82
2022-07-28T21:56:30.147Z,7.80
2022-07-28T21:58:57.052Z,8.20
2022-07-28T22:01:24.216Z,8.05
2022-07-28T22:03:51.041Z,8.10
2022-07-28T22:06:17.654Z,7.78
2022-07-28T22:08:44.228Z,7.72
2022-07-28T22:11:10.900Z,7.70
2022-07-28T22:13:37.443Z,7.43
2022-07-28T22:16:04.096Z,7.53
2022-07-28T22:18:30.698Z,7.45
2022-07-28T22:20:57.182Z,7.30
2022-07-28T22:23:29.799Z,7.60
2022-07-28T22:25:56.828Z,8.07
2022-07-28T22:28:29.527Z,7.60
2022-07-28T22:30:57.444Z,7.68
2022-07-28T22:33:23.887Z,7.55
2022-07-28T22:35:51.380Z,7.68
2022-07-28T22:38:18.053Z,7.88
2022-07-28T22:40:44.579Z,7.65
2022-07-28T22:43:11.032Z,7.47
2022-07-28T22:45:50.344Z,7.45
2022-07-28T22:50:44.473Z,7.28
2022-07-28T22:53:10.973Z,7.47
2022-07-28T22:55:37.425Z,8.10
2022-07-28T22:58:05.612Z,7.30
2022-07-28T23:00:32.871Z,7.68
2022-07-28T23:03:02.723Z,8.43
2022-07-28T23:05:30.469Z,7.93
2022-07-28T23:07:57.615Z,7.90
2022-07-28T23:10:25.663Z,7.93
2022-07-28T23:12:52.135Z,7.60
2022-07-28T23:15:18.725Z,8.10
2022-07-28T23:17:45.242Z,7.90
2022-07-28T23:20:11.990Z,8.25
2022-07-28T23:22:38.426Z,8.40
2022-07-28T23:25:05.593Z,8.55
2022-07-28T23:27:32.453Z,8.38
2022-07-28T23:29:58.858Z,8.63
2022-07-28T23:32:25.322Z,7.90
2022-07-28T23:34:51.802Z,8.32
2022-07-28T23:37:18.465Z,8.05
2022-07-28T23:39:45.848Z,7.78
2022-07-28T23:42:12.335Z,8.40
2022-07-28T23:44:38.828Z,8.10
2022-07-28T23:47:05.419Z,8.30
2022-07-28T23:49:31.919Z,8.38
2022-07-28T23:51:58.475Z,8.20
2022-07-28T23:54:24.935Z,8.55
2022-07-28T23:56:56.828Z,8.90
2022-07-28T23:59:24.240Z,8.63
